Time;durP1;ratioP1;P1;durP2;ratioP2;P2;SDS_P1;SDS_P2;PMS_P1;PMS_P2;Temp;Humidity;BMP_temperature;BMP_pressure;BME280_temperature;BME280_humidity;BME280_pressure;Samples;Min_cycle;Max_cycle;Signal;HPM_P1;HPM_P2
2022/06/03 00:01:49;;;;;;;7.35;4.05;;;25.70;85.60;;;;;;6275638;22;20022;-77
2022/06/03 00:04:33;;;;;;;5.82;3.92;;;25.70;85.30;;;;;;6248783;22;20000;-77
2022/06/03 00:07:07;;;;;;;7.72;4.70;;;25.70;85.20;;;;;;6274791;22;20766;-77
2022/06/03 00:09:44;;;;;;;8.95;4.63;;;25.70;85.00;;;;;;6275961;22;20000;-79
2022/06/03 00:12:21;;;;;;;5.72;3.47;;;25.60;84.90;;;;;;6275566;22;20007;-79
2022/06/03 00:15:15;;;;;;;7.60;4.25;;;25.50;84.90;;;;;;6275533;22;20411;-79
2022/06/03 00:18:29;;;;;;;9.15;4.28;;;25.50;84.90;;;;;;6228190;22;20006;-76
2022/06/03 00:21:05;;;;;;;6.13;3.83;;;25.50;84.90;;;;;;6275356;22;20018;-76
2022/06/03 00:23:36;;;;;;;10.73;6.00;;;25.50;84.80;;;;;;6277379;22;20015;-76
2022/06/03 00:26:26;;;;;;;8.27;5.20;;;25.40;84.10;;;;;;6276187;22;20014;-77
2022/06/03 00:29:10;;;;;;;9.10;4.82;;;25.40;83.90;;;;;;6249694;22;20003;-77
2022/06/03 00:32:07;;;;;;;9.68;5.43;;;25.40;83.30;;;;;;6276830;22;20278;-78
2022/06/03 00:34:54;;;;;;;7.88;4.60;;;25.40;82.10;;;;;;6249886;22;20007;-77
2022/06/03 00:37:36;;;;;;;6.82;4.32;;;25.30;81.70;;;;;;6276754;22;20319;-78
2022/06/03 00:40:21;;;;;;;8.60;5.55;;;25.20;82.10;;;;;;6277163;22;19999;-76
2022/06/03 00:43:22;;;;;;;7.85;4.72;;;25.10;81.50;;;;;;6276979;22;20486;-77
2022/06/03 00:46:00;;;;;;;6.75;4.28;;;25.10;81.80;;;;;;6249540;22;20078;-78
2022/06/03 00:48:29;;;;;;;9.63;4.57;;;25.10;81.50;;;;;;6277000;22;20315;-78
2022/06/03 00:51:03;;;;;;;6.57;4.30;;;25.10;81.00;;;;;;6276818;22;20003;-78
2022/06/03 00:53:59;;;;;;;7.03;3.88;;;25.10;80.50;;;;;;6276854;22;20000;-79
2022/06/03 00:56:25;;;;;;;6.38;4.47;;;25.10;80.00;;;;;;6275787;22;20056;-78
2022/06/03 00:59:02;;;;;;;7.18;4.78;;;25.10;79.70;;;;;;6277344;22;20358;-78
2022/06/03 01:02:03;;;;;;;9.15;4.97;;;25.10;79.50;;;;;;6276985;22;19999;-78
2022/06/03 01:04:41;;;;;;;9.20;4.90;;;25.10;79.20;;;;;;6277078;22;20000;-78
2022/06/03 01:07:09;;;;;;;9.70;4.70;;;25.10;78.90;;;;;;6276803;22;20445;-77
2022/06/03 01:09:59;;;;;;;8.57;4.70;;;25.10;78.60;;;;;;6276025;22;20410;-79
2022/06/03 01:12:34;;;;;;;7.53;4.28;;;25.10;78.10;;;;;;6276029;22;20430;-80
2022/06/03 01:15:41;;;;;;;7.93;5.07;;;25.10;78.00;;;;;;6276420;22;20019;-77
2022/06/03 01:18:13;;;;;;;8.23;5.18;;;25.10;77.50;;;;;;6152920;23;20076;-77
2022/06/03 01:21:02;;;;;;;8.38;4.90;;;25.10;77.30;;;;;;6261885;22;20047;-77
2022/06/03 01:24:04;;;;;;;13.55;7.32;;;25.10;76.90;;;;;;6276685;22;20027;-76
2022/06/03 01:26:52;;;;;;;7.70;5.00;;;25.00;75.80;;;;;;6247874;22;20015;-76
2022/06/03 01:29:39;;;;;;;5.93;4.38;;;24.90;76.10;;;;;;6276626;22;20011;-76
2022/06/03 01:32:23;;;;;;;7.55;5.07;;;24.80;76.50;;;;;;6276683;22;19999;-77
2022/06/03 01:35:10;;;;;;;9.38;4.90;;;24.80;76.40;;;;;;6275096;22;19999;-77
2022/06/03 01:38:04;;;;;;;7.55;4.88;;;24.80;75.90;;;;;;6276519;22;20004;-78
2022/06/03 01:40:48;;;;;;;9.60;4.53;;;24.80;75.90;;;;;;6276230;22;20000;-78
2022/06/03 01:43:40;;;;;;;7.53;5.13;;;24.80;75.90;;;;;;6275973;22;20001;-79
2022/06/03 01:46:28;;;;;;;8.88;5.47;;;24.80;75.80;;;;;;6275906;22;20000;-78
2022/06/03 01:48:57;;;;;;;6.38;5.47;;;24.80;75.60;;;;;;6276628;22;20003;-77
2022/06/03 01:51:44;;;;;;;5.97;4.85;;;24.70;75.70;;;;;;6275705;22;20426;-77
2022/06/03 01:54:33;;;;;;;7.70;5.80;;;24.70;76.00;;;;;;6276004;22;20019;-78
2022/06/03 01:57:08;;;;;;;7.03;5.28;;;24.60;75.90;;;;;;6248061;22;20006;-77
2022/06/03 01:59:58;;;;;;;8.70;5.88;;;24.60;75.80;;;;;;6248785;22;20087;-77
2022/06/03 02:02:49;;;;;;;8.18;5.63;;;24.60;76.00;;;;;;6276130;22;20003;-78
2022/06/03 02:05:18;;;;;;;5.80;5.10;;;24.60;75.70;;;;;;6275158;22;20034;-76
2022/06/03 02:08:05;;;;;;;6.38;5.30;;;24.60;75.80;;;;;;6275221;22;20074;-77
2022/06/03 02:11:00;;;;;;;8.45;5.55;;;24.60;75.70;;;;;;6275987;22;20008;-78
2022/06/03 02:14:03;;;;;;;6.28;5.03;;;24.60;75.40;;;;;;6264826;22;20073;-76
2022/06/03 02:16:56;;;;;;;7.93;7.03;;;24.50;75.70;;;;;;6275524;22;20417;-77
2022/06/03 02:19:22;;;;;;;7.72;5.90;;;24.50;75.40;;;;;;6275550;22;20013;-77
2022/06/03 02:22:09;;;;;;;7.07;5.60;;;24.50;75.70;;;;;;6275912;22;20011;-77
2022/06/03 02:24:54;;;;;;;6.93;5.00;;;24.50;75.70;;;;;;6276134;22;20000;-77
2022/06/03 02:27:22;;;;;;;6.05;5.30;;;24.50;75.70;;;;;;6274730;22;20006;-78
2022/06/03 02:30:26;;;;;;;7.10;5.25;;;24.40;75.80;;;;;;6276307;22;20425;-78
2022/06/03 02:33:16;;;;;;;6.03;5.00;;;24.40;75.90;;;;;;6275224;22;20004;-80
2022/06/03 02:35:52;;;;;;;8.18;6.22;;;24.40;75.90;;;;;;6275062;22;19996;-80
2022/06/03 02:38:36;;;;;;;6.93;5.53;;;24.40;75.90;;;;;;6275594;22;20027;-80
2022/06/03 02:41:29;;;;;;;8.82;5.88;;;24.40;76.00;;;;;;6276596;22;20406;-80
2022/06/03 02:43:54;;;;;;;8.07;6.32;;;24.40;76.20;;;;;;6248243;22;20003;-77
2022/06/03 02:46:57;;;;;;;10.05;7.15;;;24.20;76.40;;;;;;6274428;22;20303;-78
2022/06/03 02:49:55;;;;;;;8.40;6.53;;;24.20;76.40;;;;;;6276568;22;19999;-77
2022/06/03 02:52:45;;;;;;;10.88;6.45;;;24.20;76.60;;;;;;6275319;22;20000;-77
2022/06/03 02:55:31;;;;;;;6.68;6.05;;;24.10;76.60;;;;;;6275888;22;20402;-78
2022/06/03 02:58:19;;;;;;;7.18;5.68;;;24.10;76.70;;;;;;6275388;22;20252;-78
2022/06/03 03:01:14;;;;;;;6.38;5.30;;;24.10;76.70;;;;;;6246798;22;20031;-78
2022/06/03 03:04:10;;;;;;;7.47;6.13;;;24.00;76.70;;;;;;6276212;22;20472;-77
2022/06/03 03:06:50;;;;;;;8.02;6.70;;;24.10;76.70;;;;;;6274641;22;20322;-77
2022/06/03 03:09:24;;;;;;;;;;;24.00;76.90;;;;;;6276329;22;20083;-77
2022/06/03 03:12:27;;;;;;;7.65;5.88;;;24.10;76.70;;;;;;6275199;22;20305;-77
2022/06/03 03:15:19;;;;;;;6.80;6.15;;;24.10;76.70;;;;;;6276096;22;20007;-78
2022/06/03 03:18:05;;;;;;;7.20;6.13;;;24.10;76.60;;;;;;6274402;22;20019;-78
2022/06/03 03:21:04;;;;;;;6.90;6.20;;;24.10;76.40;;;;;;6274615;22;19999;-78
2022/06/03 03:23:45;;;;;;;7.30;6.60;;;24.10;76.30;;;;;;6275594;22;20026;-78
2022/06/03 03:26:31;;;;;;;9.57;6.63;;;24.10;76.50;;;;;;6247308;22;20541;-77
2022/06/03 03:29:32;;;;;;;7.18;6.22;;;24.10;76.40;;;;;;6253581;22;20008;-77
2022/06/03 03:32:03;;;;;;;6.57;5.72;;;24.10;76.40;;;;;;6247901;22;20008;-80
2022/06/03 03:34:38;;;;;;;7.20;5.35;;;24.10;76.40;;;;;;6248692;22;20315;-79
2022/06/03 03:37:22;;;;;;;6.20;5.60;;;24.10;76.40;;;;;;6248574;22;20502;-79
2022/06/03 03:40:19;;;;;;;7.57;6.28;;;24.00;76.50;;;;;;6274619;22;20003;-77
2022/06/03 03:43:09;;;;;;;6.28;5.45;;;24.00;76.50;;;;;;6274009;22;20003;-77
2022/06/03 03:45:59;;;;;;;8.05;7.25;;;24.00;76.70;;;;;;6275392;22;20027;-76
2022/06/03 03:48:36;;;;;;;7.55;5.95;;;23.80;76.90;;;;;;6274556;22;20004;-76
2022/06/03 03:51:31;;;;;;;6.55;5.70;;;23.70;77.50;;;;;;6274730;22;20385;-76
2022/06/03 03:54:32;;;;;;;6.25;5.55;;;23.70;77.70;;;;;;6274558;22;20422;-76
2022/06/03 03:57:08;;;;;;;8.95;6.20;;;23.60;77.80;;;;;;6276536;22;20003;-76
2022/06/03 04:00:01;;;;;;;6.00;5.32;;;23.70;77.90;;;;;;6276177;22;20345;-76
2022/06/03 04:03:08;;;;;;;7.97;5.80;;;23.70;77.70;;;;;;6276428;22;20020;-75
2022/06/03 04:05:58;;;;;;;6.07;5.20;;;23.80;77.70;;;;;;6277675;22;20075;-77
2022/06/03 04:09:01;;;;;;;7.35;5.20;;;23.80;77.50;;;;;;6276824;22;20020;-76
2022/06/03 04:11:44;;;;;;;5.72;5.13;;;23.80;77.30;;;;;;6276819;22;20002;-76
2022/06/03 04:14:25;;;;;;;6.82;5.70;;;23.90;77.20;;;;;;6277242;22;19999;-76
2022/06/03 04:17:12;;;;;;;5.80;4.90;;;23.90;77.20;;;;;;6249847;22;20007;-77
2022/06/03 04:19:52;;;;;;;5.93;5.28;;;23.90;77.00;;;;;;6277800;22;20011;-77
2022/06/03 04:22:47;;;;;;;6.35;4.78;;;23.90;77.10;;;;;;6275431;22;20130;-76
2022/06/03 04:25:46;;;;;;;5.72;5.07;;;23.80;77.30;;;;;;6277430;22;20330;-78
2022/06/03 04:28:26;;;;;;;6.22;5.07;;;23.90;77.20;;;;;;6250468;22;20039;-78
2022/06/03 04:31:10;;;;;;;;;;;24.00;77.10;;;;;;6277306;22;19999;-78
2022/06/03 04:33:53;;;;;;;5.03;4.53;;;23.90;77.20;;;;;;6276376;22;19946;-77
2022/06/03 04:36:33;;;;;;;5.57;5.03;;;23.80;77.40;;;;;;6276713;22;20000;-75
2022/06/03 04:39:35;;;;;;;7.90;7.10;;;23.90;77.30;;;;;;6275774;22;20007;-75
2022/06/03 04:42:22;;;;;;;6.78;4.60;;;23.80;77.40;;;;;;6276367;22;19999;-75
2022/06/03 04:45:08;;;;;;;6.05;4.28;;;23.80;77.70;;;;;;6276736;22;20014;-75
2022/06/03 04:47:53;;;;;;;5.55;5.05;;;23.80;77.80;;;;;;6276844;22;20074;-76
2022/06/03 04:50:39;;;;;;;7.60;5.72;;;23.90;77.60;;;;;;6275868;22;20000;-75
2022/06/03 04:53:42;;;;;;;5.03;4.53;;;23.90;77.30;;;;;;6273913;22;20334;-75
2022/06/03 04:56:37;;;;;;;6.40;4.22;;;24.00;77.40;;;;;;6276165;22;19995;-75
2022/06/03 04:59:28;;;;;;;5.97;4.80;;;24.00;77.40;;;;;;6249551;22;20306;-75
2022/06/03 05:01:59;;;;;;;5.50;4.45;;;24.10;77.40;;;;;;6276698;22;20430;-75
2022/06/03 05:04:46;;;;;;;5.32;4.68;;;24.10;77.10;;;;;;6275870;22;20000;-75
2022/06/03 05:07:53;;;;;;;4.85;4.00;;;24.10;76.80;;;;;;6274605;22;20021;-76
2022/06/03 05:10:41;;;;;;;4.35;3.95;;;24.10;76.90;;;;;;6204283;22;20008;-76
2022/06/03 05:13:30;;;;;;;4.45;3.97;;;24.20;76.60;;;;;;6276538;22;20010;-76
2022/06/03 05:16:43;;;;;;;8.27;5.05;;;24.20;76.50;;;;;;6249960;22;20007;-76
2022/06/03 05:19:24;;;;;;;5.93;4.25;;;24.20;76.50;;;;;;6275327;22;20329;-76
2022/06/03 05:21:59;;;;;;;4.10;3.70;;;24.20;76.40;;;;;;6275331;22;20026;-76
2022/06/03 05:24:36;;;;;;;4.53;4.03;;;24.20;76.50;;;;;;6276164;22;20000;-76
2022/06/03 05:27:33;;;;;;;3.72;3.33;;;24.20;76.60;;;;;;6276030;22;19999;-76
2022/06/03 05:30:02;;;;;;;3.95;3.33;;;24.30;76.40;;;;;;6248766;22;20039;-74
2022/06/03 05:32:58;;;;;;;3.35;2.65;;;24.30;76.10;;;;;;6276236;22;20014;-75
2022/06/03 05:35:41;;;;;;;4.00;2.92;;;24.30;76.00;;;;;;6275412;22;20011;-75
2022/06/03 05:38:13;;;;;;;4.85;3.10;;;24.30;76.00;;;;;;6276848;22;20003;-75
2022/06/03 05:41:00;;;;;;;5.50;2.80;;;24.40;76.00;;;;;;6248297;22;20410;-84
2022/06/03 05:43:46;;;;;;;5.45;3.45;;;24.40;75.80;;;;;;6276030;22;20056;-75
2022/06/03 05:46:25;;;;;;;2.80;2.60;;;24.40;75.60;;;;;;6184802;22;20466;-74
2022/06/03 05:48:56;;;;;;;3.20;2.60;;;24.40;75.70;;;;;;6273302;22;20007;-74
2022/06/03 05:51:34;;;;;;;2.67;2.47;;;24.40;75.80;;;;;;6274091;22;20461;-74
2022/06/03 05:54:15;;;;;;;3.40;3.10;;;24.50;75.50;;;;;;6248030;22;20086;-77
2022/06/03 05:57:09;;;;;;;3.65;2.67;;;24.60;75.10;;;;;;6248480;22;20433;-77
2022/06/03 06:00:14;;;;;;;5.60;2.90;;;24.60;75.00;;;;;;6275951;22;20034;-78
2022/06/03 06:02:58;;;;;;;3.20;2.58;;;24.60;75.30;;;;;;6275891;22;20007;-78
2022/06/03 06:05:55;;;;;;;5.68;2.85;;;24.70;75.10;;;;;;6248070;22;20337;-77
2022/06/03 06:08:30;;;;;;;2.92;2.60;;;24.70;75.10;;;;;;6275526;22;20004;-79
2022/06/03 06:11:10;;;;;;;3.22;2.33;;;24.80;75.10;;;;;;6275894;22;20031;-75
2022/06/03 06:13:45;;;;;;;2.25;1.85;;;24.90;74.70;;;;;;6276354;22;20034;-75
2022/06/03 06:16:21;;;;;;;3.63;2.42;;;24.90;74.40;;;;;;6276329;22;20003;-75
2022/06/03 06:19:04;;;;;;;2.92;2.60;;;24.90;74.40;;;;;;6276358;22;20004;-75
2022/06/03 06:21:36;;;;;;;5.18;2.60;;;24.90;73.80;;;;;;6276288;22;20004;-76
2022/06/03 06:24:17;;;;;;;2.60;2.13;;;24.90;74.10;;;;;;6276645;22;20003;-76
2022/06/03 06:27:01;;;;;;;4.43;2.20;;;24.90;74.00;;;;;;6276400;22;20053;-76
2022/06/03 06:29:55;;;;;;;4.88;2.78;;;25.00;74.10;;;;;;6261254;22;19999;-75
2022/06/03 06:33:02;;;;;;;3.13;2.38;;;25.10;73.60;;;;;;6243359;22;20031;-75
2022/06/03 06:36:05;;;;;;;4.35;2.25;;;25.10;74.10;;;;;;6152745;23;20428;-75
2022/06/03 06:38:37;;;;;;;3.15;1.88;;;25.20;73.80;;;;;;6275080;22;20000;-75
2022/06/03 06:41:20;;;;;;;4.05;2.10;;;25.20;73.80;;;;;;6275974;22;19996;-75
2022/06/03 06:43:58;;;;;;;3.58;2.50;;;25.30;73.80;;;;;;6275911;22;20003;-75
2022/06/03 06:46:51;;;;;;;3.25;2.13;;;25.40;73.80;;;;;;6247884;22;20047;-75
2022/06/03 06:49:28;;;;;;;2.28;2.08;;;25.40;73.90;;;;;;6274775;22;20061;-75
2022/06/03 06:52:28;;;;;;;3.50;3.17;;;25.40;73.80;;;;;;6273681;22;20009;-75
2022/06/03 06:54:59;;;;;;;2.63;2.22;;;25.40;73.00;;;;;;6275537;22;20000;-75
2022/06/03 06:57:40;;;;;;;2.95;1.92;;;25.40;73.60;;;;;;6275938;22;20000;-75
2022/06/03 07:00:16;;;;;;;2.80;2.20;;;25.40;73.50;;;;;;6276044;22;19996;-75
2022/06/03 07:02:51;;;;;;;2.28;2.08;;;25.50;73.20;;;;;;6248965;22;20038;-74
2022/06/03 07:05:36;;;;;;;4.68;2.20;;;25.60;73.40;;;;;;6276201;22;19999;-75
2022/06/03 07:08:28;;;;;;;2.83;1.85;;;25.60;73.40;;;;;;6237607;22;20008;-74
2022/06/03 07:11:14;;;;;;;3.50;2.17;;;25.70;73.50;;;;;;6276551;22;19999;-75
2022/06/03 07:13:39;;;;;;;4.32;2.10;;;25.80;73.30;;;;;;6275176;22;20037;-75
2022/06/03 07:16:09;;;;;;;3.00;2.45;;;25.90;73.10;;;;;;6276109;22;20000;-79
2022/06/03 07:22:06;;;;;;;2.17;1.85;;;25.90;72.60;;;;;;6276219;22;20018;-77
2022/06/03 07:24:48;;;;;;;1.60;1.50;;;25.90;72.20;;;;;;6276074;22;20434;-75
2022/06/03 07:27:27;;;;;;;5.10;2.67;;;26.00;72.50;;;;;;6276288;22;20030;-75
2022/06/03 07:30:05;;;;;;;3.92;2.72;;;26.00;71.50;;;;;;6275003;22;20506;-77
2022/06/03 07:33:01;;;;;;;2.67;1.70;;;26.10;71.40;;;;;;6275523;22;20011;-76
2022/06/03 07:35:41;;;;;;;3.65;1.67;;;26.20;71.70;;;;;;6212792;22;20524;-77
2022/06/03 07:38:26;;;;;;;3.03;1.90;;;26.30;71.60;;;;;;6274929;22;20003;-76
2022/06/03 07:41:34;;;;;;;1.92;1.70;;;26.50;70.70;;;;;;6268089;22;19996;-78
2022/06/03 07:44:15;;;;;;;2.65;2.00;;;26.50;70.50;;;;;;6150771;23;20438;-79
2022/06/03 07:46:54;;;;;;;3.33;1.85;;;26.50;70.50;;;;;;6268450;22;20004;-78
2022/06/03 07:49:25;;;;;;;4.47;2.00;;;26.50;70.00;;;;;;6247356;22;20012;-79
2022/06/03 07:52:26;;;;;;;3.90;2.50;;;26.60;70.00;;;;;;6275454;22;20031;-78
2022/06/03 07:54:57;;;;;;;3.15;1.70;;;26.60;69.50;;;;;;6270364;22;19999;-78
2022/06/03 07:57:26;;;;;;;1.90;1.70;;;26.50;70.00;;;;;;6275586;22;19996;-75
2022/06/03 07:59:57;;;;;;;2.28;1.73;;;26.50;70.00;;;;;;6246722;22;20015;-75
2022/06/03 08:02:24;;;;;;;3.17;1.80;;;26.50;70.10;;;;;;6274894;22;20071;-75
2022/06/03 08:05:11;;;;;;;1.73;1.63;;;26.50;70.10;;;;;;6274251;22;20011;-75
2022/06/03 08:13:15;;;;;;;3.72;1.90;;;26.50;69.80;;;;;;6271319;22;20392;-75
2022/06/03 08:15:50;;;;;;;2.38;2.15;;;26.50;70.40;;;;;;6245796;22;20000;-75
2022/06/03 08:18:18;;;;;;;2.45;1.85;;;26.60;70.70;;;;;;6272772;22;20006;-78
2022/06/03 08:20:57;;;;;;;3.72;2.00;;;26.60;70.60;;;;;;6271885;22;20058;-78
2022/06/03 08:23:24;;;;;;;2.22;2.00;;;26.70;70.50;;;;;;6246481;22;20061;-77
2022/06/03 08:25:55;;;;;;;1.70;1.60;;;26.70;70.00;;;;;;6273775;22;20627;-76
2022/06/03 08:28:25;;;;;;;2.00;1.70;;;26.80;70.30;;;;;;6244818;22;20091;-76
2022/06/03 08:30:54;;;;;;;4.30;2.25;;;26.90;70.40;;;;;;6240260;22;20004;-77
2022/06/03 08:33:47;;;;;;;4.50;2.40;;;26.90;70.20;;;;;;6243709;22;20012;-77
2022/06/03 08:36:18;;;;;;;2.38;1.85;;;27.00;70.40;;;;;;6245523;22;20008;-77
2022/06/03 08:39:16;;;;;;;2.53;1.80;;;27.10;70.90;;;;;;6272936;22;20003;-78
2022/06/03 08:42:03;;;;;;;3.10;1.73;;;27.10;70.40;;;;;;6221493;22;20035;-77
2022/06/03 08:44:41;;;;;;;2.40;2.20;;;27.10;70.20;;;;;;6243454;22;20003;-78
2022/06/03 08:47:15;;;;;;;5.55;2.58;;;27.10;69.70;;;;;;6246910;22;20320;-77
2022/06/03 08:50:00;;;;;;;4.63;2.20;;;27.00;69.40;;;;;;6247602;22;20422;-78
2022/06/03 08:52:40;;;;;;;3.58;2.28;;;27.00;70.30;;;;;;6273412;22;20011;-77
2022/06/03 08:55:21;;;;;;;2.42;2.00;;;27.00;70.10;;;;;;6275377;22;20008;-81
2022/06/03 08:57:50;;;;;;;2.33;1.85;;;27.10;70.20;;;;;;6276637;22;20003;-78
2022/06/03 09:00:21;;;;;;;5.20;2.05;;;27.10;70.50;;;;;;6277326;22;20003;-83
2022/06/03 09:02:57;;;;;;;3.13;1.80;;;27.20;70.50;;;;;;6275988;22;20011;-82
2022/06/03 09:05:32;;;;;;;3.22;2.17;;;27.30;70.40;;;;;;6276082;22;20337;-82
2022/06/03 09:08:16;;;;;;;2.10;1.80;;;27.40;68.30;;;;;;6247911;22;20011;-79
2022/06/03 09:11:11;;;;;;;3.45;2.00;;;27.40;69.30;;;;;;6276536;22;20034;-82
2022/06/03 09:14:03;;;;;;;2.25;1.90;;;27.50;68.90;;;;;;6230140;22;20091;-79
2022/06/03 09:16:30;;;;;;;3.38;1.80;;;27.50;69.10;;;;;;6242876;22;20015;-81
2022/06/03 09:19:15;;;;;;;1.75;1.60;;;27.60;68.90;;;;;;6276505;22;20058;-80
2022/06/03 09:21:45;;;;;;;4.75;2.00;;;27.60;69.00;;;;;;6246682;22;20008;-79
2022/06/03 09:24:29;;;;;;;4.75;1.92;;;27.70;68.90;;;;;;6275169;22;20022;-80
2022/06/03 09:26:58;;;;;;;1.70;1.60;;;27.80;68.30;;;;;;6248896;22;20046;-81
2022/06/03 09:29:25;;;;;;;2.38;1.63;;;27.90;69.00;;;;;;6275474;22;20082;-79
2022/06/03 09:32:01;;;;;;;3.28;1.60;;;28.00;68.20;;;;;;6275795;22;20000;-80
2022/06/03 09:34:41;;;;;;;1.92;1.52;;;28.00;67.90;;;;;;6274672;22;20008;-80
2022/06/03 09:37:14;;;;;;;1.67;1.50;;;28.10;67.90;;;;;;6248142;22;19999;-80
2022/06/03 09:39:42;;;;;;;1.80;1.38;;;28.20;67.20;;;;;;6275155;22;20011;-82
2022/06/03 09:42:09;;;;;;;2.13;1.60;;;28.30;67.00;;;;;;6276303;22;20049;-82
2022/06/03 09:44:35;;;;;;;2.50;1.63;;;28.30;65.60;;;;;;6275571;22;20011;-80
2022/06/03 09:47:07;;;;;;;2.00;1.60;;;28.40;66.10;;;;;;6275864;22;20003;-79
2022/06/03 09:49:33;;;;;;;2.17;1.83;;;28.50;66.30;;;;;;6248806;22;20008;-79
2022/06/03 09:52:01;;;;;;;2.67;1.83;;;28.50;65.10;;;;;;6248686;22;20473;-81
2022/06/03 09:54:32;;;;;;;4.53;2.03;;;28.60;65.50;;;;;;6247019;22;20091;-78
2022/06/03 09:57:06;;;;;;;2.42;2.17;;;28.70;65.10;;;;;;6244296;22;20003;-79
2022/06/03 09:59:35;;;;;;;4.30;2.10;;;28.80;64.90;;;;;;6271934;22;20006;-79
2022/06/03 10:02:01;;;;;;;3.13;2.30;;;28.80;64.70;;;;;;6255487;22;20390;-80
2022/06/03 10:04:27;;;;;;;3.15;2.20;;;28.90;62.30;;;;;;6245122;23;20369;-81
2022/06/03 10:06:55;;;;;;;2.50;1.80;;;28.90;62.90;;;;;;6245177;23;20004;-81
2022/06/03 10:17:57;;;;;;;2.13;1.70;;;29.30;64.50;;;;;;6244782;23;20023;-82
2022/06/03 10:20:23;;;;;;;;;;;29.40;64.30;;;;;;6244422;23;20025;-81
2022/06/03 10:22:49;;;;;;;2.55;1.88;;;29.40;62.90;;;;;;6217154;23;19958;-81
2022/06/03 10:25:16;;;;;;;3.17;2.10;;;29.40;64.00;;;;;;6244092;23;20000;-82
2022/06/03 10:27:45;;;;;;;2.13;1.67;;;29.40;62.50;;;;;;6217588;23;20012;-80
2022/06/03 10:30:24;;;;;;;2.55;2.03;;;29.30;63.40;;;;;;6244225;23;20303;-81
2022/06/03 10:32:50;;;;;;;2.05;1.50;;;29.40;63.90;;;;;;6243696;23;20004;-80
2022/06/03 10:35:17;;;;;;;3.55;1.48;;;29.40;63.30;;;;;;6245461;23;20000;-81
2022/06/03 10:37:52;;;;;;;3.42;2.30;;;29.50;63.40;;;;;;6244935;23;20090;-82
2022/06/03 10:40:21;;;;;;;2.30;1.75;;;29.40;61.80;;;;;;6245530;23;20000;-81
2022/06/03 10:42:48;;;;;;;2.53;1.85;;;29.40;63.20;;;;;;6218101;23;20012;-81
2022/06/03 10:45:15;;;;;;;5.03;2.08;;;29.50;63.20;;;;;;6244636;23;20087;-82
2022/06/03 10:47:46;;;;;;;3.63;1.80;;;29.40;63.70;;;;;;6218470;23;20456;-82
2022/06/03 10:50:25;;;;;;;3.85;1.90;;;29.40;64.00;;;;;;6245202;23;20012;-83
2022/06/03 11:01:46;;;;;;;1.80;1.52;;;29.20;64.20;;;;;;6242952;22;20363;-81
2022/06/03 11:04:37;;;;;;;2.42;1.70;;;29.30;64.40;;;;;;6217272;23;20061;-81
2022/06/03 11:07:27;;;;;;;2.25;1.55;;;29.20;64.30;;;;;;6226702;23;20004;-81
2022/06/03 11:10:04;;;;;;;2.50;1.80;;;29.20;64.70;;;;;;6243184;23;20004;-81
2022/06/03 11:12:31;;;;;;;3.40;1.70;;;29.20;64.30;;;;;;6244762;23;20499;-81
2022/06/03 11:14:58;;;;;;;3.70;2.10;;;29.20;64.50;;;;;;6241951;23;20046;-81
2022/06/03 11:17:33;;;;;;;3.70;2.03;;;29.20;64.40;;;;;;6243207;23;20011;-81
2022/06/03 11:20:00;;;;;;;1.98;1.75;;;29.10;64.40;;;;;;6243686;23;20008;-81
2022/06/03 11:22:26;;;;;;;6.20;2.40;;;29.10;64.50;;;;;;6216373;23;20327;-81
2022/06/03 11:25:22;;;;;;;2.28;1.83;;;29.10;63.90;;;;;;6243109;23;20000;-81
2022/06/03 11:27:47;;;;;;;3.50;2.05;;;29.10;64.40;;;;;;6215739;23;20011;-81
2022/06/03 11:30:27;;;;;;;2.25;1.88;;;29.10;64.60;;;;;;6244764;23;20421;-82
2022/06/03 11:32:57;;;;;;;2.22;1.63;;;29.10;65.10;;;;;;6243188;23;20018;-81
2022/06/03 11:35:32;;;;;;;2.67;1.58;;;29.20;65.10;;;;;;6216584;23;20004;-80
2022/06/03 11:38:03;;;;;;;3.85;1.92;;;29.30;65.00;;;;;;6242774;23;19996;-80
2022/06/03 11:40:34;;;;;;;2.20;1.88;;;29.40;65.20;;;;;;6242901;23;20004;-80
2022/06/03 11:43:07;;;;;;;3.28;2.10;;;29.40;65.00;;;;;;6243386;23;20004;-81
2022/06/03 11:45:46;;;;;;;3.38;1.98;;;29.50;64.90;;;;;;6242466;23;20082;-81
2022/06/03 11:48:37;;;;;;;2.63;1.83;;;29.60;64.40;;;;;;6242521;23;20000;-82
2022/06/03 11:51:04;;;;;;;2.63;2.00;;;29.70;64.60;;;;;;6242809;23;20000;-80
2022/06/03 11:53:34;;;;;;;3.00;1.95;;;29.70;64.60;;;;;;6216481;23;20141;-81
2022/06/03 11:56:03;;;;;;;2.42;2.10;;;29.70;64.40;;;;;;6243129;23;20000;-80
2022/06/03 11:58:49;;;;;;;3.47;2.20;;;29.70;64.10;;;;;;6244083;23;20028;-81
2022/06/03 12:01:24;;;;;;;4.15;2.30;;;29.70;64.20;;;;;;6244058;23;19996;-81
2022/06/03 12:04:02;;;;;;;4.80;1.85;;;29.70;64.20;;;;;;6244257;22;20023;-82
2022/06/03 12:06:40;;;;;;;2.78;1.70;;;29.60;64.40;;;;;;6244022;23;20010;-82
2022/06/03 12:09:47;;;;;;;3.05;1.83;;;29.60;64.30;;;;;;6243400;23;20011;-82
2022/06/03 12:15:30;;;;;;;4.90;2.22;;;29.50;64.70;;;;;;6244295;23;20012;-82
2022/06/03 12:18:06;;;;;;;2.20;1.83;;;29.40;64.50;;;;;;6246052;23;20007;-81
2022/06/03 12:20:31;;;;;;;6.55;1.85;;;29.30;64.80;;;;;;6219714;23;20060;-81
2022/06/03 12:23:13;;;;;;;3.30;1.80;;;29.30;65.20;;;;;;6244169;23;20007;-82
2022/06/03 12:25:46;;;;;;;3.17;2.25;;;29.20;65.40;;;;;;6243573;23;20054;-82
2022/06/03 12:28:38;;;;;;;2.60;2.05;;;29.20;65.60;;;;;;6243308;23;20414;-82
2022/06/03 12:31:20;;;;;;;3.15;2.13;;;29.20;65.30;;;;;;6237017;23;20334;-82
2022/06/03 12:34:01;;;;;;;3.13;1.90;;;29.20;65.50;;;;;;6242536;23;20430;-82
2022/06/03 12:36:51;;;;;;;2.85;2.10;;;29.10;65.40;;;;;;6242528;23;20000;-82
2022/06/03 12:39:22;;;;;;;2.20;1.90;;;29.10;65.20;;;;;;6242758;23;20050;-82
2022/06/03 12:41:48;;;;;;;2.85;2.08;;;29.10;65.60;;;;;;6242611;23;20004;-81
2022/06/03 12:44:34;;;;;;;3.22;2.00;;;29.10;65.70;;;;;;6242084;23;20497;-81
2022/06/03 12:47:33;;;;;;;2.58;1.83;;;29.10;65.60;;;;;;6242283;23;20011;-80
2022/06/03 12:50:05;;;;;;;2.75;1.85;;;29.00;65.60;;;;;;6242911;23;20015;-81
2022/06/03 12:52:33;;;;;;;3.80;1.85;;;28.90;65.60;;;;;;6242636;23;20004;-81
2022/06/03 12:55:20;;;;;;;2.45;2.05;;;28.90;66.00;;;;;;6242671;23;20008;-81
2022/06/03 12:57:57;;;;;;;5.03;2.80;;;28.90;66.30;;;;;;6243127;23;20000;-82
2022/06/03 13:00:35;;;;;;;5.00;2.80;;;28.80;66.30;;;;;;6241910;23;20000;-81
2022/06/03 13:03:04;;;;;;;7.57;2.10;;;28.80;66.60;;;;;;6227791;23;20712;-81
2022/06/03 13:05:45;;;;;;;5.07;2.00;;;28.70;67.20;;;;;;6240782;23;20016;-81
2022/06/03 13:08:26;;;;;;;3.38;2.10;;;28.60;67.60;;;;;;6242383;22;20061;-81
2022/06/03 13:11:03;;;;;;;2.92;2.38;;;28.60;67.90;;;;;;6242223;23;20039;-82
2022/06/03 13:13:34;;;;;;;8.32;2.35;;;28.50;68.60;;;;;;6242936;22;20008;-82
2022/06/03 13:16:20;;;;;;;4.88;2.17;;;28.40;69.30;;;;;;6242875;22;20422;-82
2022/06/03 13:18:52;;;;;;;3.10;1.77;;;28.30;70.00;;;;;;6241090;23;20008;-82
2022/06/03 13:22:01;;;;;;;6.00;2.28;;;28.20;69.50;;;;;;6240674;22;20005;-82
2022/06/03 13:24:30;;;;;;;4.47;2.40;;;28.20;69.70;;;;;;6242595;23;20634;-82
2022/06/03 13:27:05;;;;;;;6.15;2.70;;;28.10;69.90;;;;;;6245034;23;20051;-81
2022/06/03 13:29:49;;;;;;;6.03;3.03;;;28.10;70.40;;;;;;6244061;22;20028;-81
2022/06/03 13:32:16;;;;;;;3.35;2.50;;;28.10;70.50;;;;;;6241821;23;20039;-82
2022/06/03 13:34:43;;;;;;;5.53;2.88;;;28.00;70.70;;;;;;6244275;22;20000;-82
2022/06/03 13:37:29;;;;;;;3.47;2.55;;;28.00;71.80;;;;;;6242596;22;20003;-82
2022/06/03 13:39:55;;;;;;;3.85;2.30;;;27.90;72.10;;;;;;6242252;22;20000;-81
2022/06/03 13:45:13;;;;;;;3.40;2.50;;;28.00;71.40;;;;;;6243819;23;20065;-81
2022/06/03 13:47:42;;;;;;;5.40;2.65;;;27.90;71.50;;;;;;6243709;22;20008;-81
2022/06/03 13:50:14;;;;;;;4.57;2.25;;;27.90;71.70;;;;;;6244841;22;20011;-81
2022/06/03 13:52:46;;;;;;;2.72;1.98;;;27.90;71.70;;;;;;6244614;22;20299;-81
2022/06/03 13:55:26;;;;;;;3.35;2.10;;;27.90;71.60;;;;;;6243636;23;20030;-82
2022/06/03 13:58:01;;;;;;;5.78;2.40;;;27.80;71.80;;;;;;6244252;22;20051;-85
2022/06/03 14:00:31;;;;;;;4.20;2.30;;;27.80;71.90;;;;;;6244243;22;20058;-81
2022/06/03 14:03:03;;;;;;;2.88;2.03;;;27.80;72.00;;;;;;6244412;22;20019;-82
2022/06/03 14:05:56;;;;;;;2.33;1.85;;;27.70;72.20;;;;;;6244067;23;20046;-83
2022/06/03 14:08:39;;;;;;;2.83;2.53;;;27.70;72.70;;;;;;6217685;23;20012;-82
2022/06/03 14:11:04;;;;;;;3.25;2.55;;;27.70;73.80;;;;;;6244858;23;20087;-82
2022/06/03 14:13:36;;;;;;;4.60;2.53;;;27.60;74.30;;;;;;6244350;23;20036;-82
2022/06/03 14:16:14;;;;;;;3.97;2.92;;;27.60;75.00;;;;;;6243095;23;20115;-82
2022/06/03 14:18:54;;;;;;;4.43;2.35;;;27.60;75.70;;;;;;6242644;23;20015;-80
2022/06/03 14:21:50;;;;;;;2.75;2.28;;;27.50;76.00;;;;;;6244262;23;20434;-82
2022/06/03 14:24:18;;;;;;;2.30;2.08;;;27.50;76.40;;;;;;6215955;23;20004;-81
2022/06/03 14:27:01;;;;;;;3.17;2.25;;;27.50;76.60;;;;;;6217464;23;20007;-82
2022/06/03 14:29:40;;;;;;;3.10;2.35;;;27.50;77.30;;;;;;6244796;23;20010;-82
2022/06/03 14:32:16;;;;;;;5.05;2.95;;;27.40;77.30;;;;;;6243844;23;20059;-81